METAR AND TAF INFORMATION
METAR FOR UASK
ADDS - METARS form results

(0044 UTC 18 November 2019)
Data provider http://aviationweather.gov/metar/data/
 
METAR text: UASK 180030Z 14008MPS 9999 SCT050 OVC114 M03/M09 Q1025 R12/820248 NOSIG RMK QFE743/0991
Conditions at: UASK (UST KAMENOGORSK , RU) observed 0030 UTC 18 November 2019
Temperature: -3.0°C (27°F)
Dewpoint: -9.0°C (16°F) [RH = 63%]
Pressure (altimeter): 30.27 inches Hg (1025.0 mb)
Winds: from the SE (140 degrees) at 18 MPH (16 knots; 8.2 m/s)
Visibility: 6 or more miles (10+ km)
Ceiling: 11400 feet AGL
Clouds: scattered clouds at 5000 feet AGL
overcast cloud deck at 11400 feet AGL
Weather: no significant weather observed at this time

METAR text: UASK 180000Z 15008MPS 9999 SCT050CB OVC116 M03/M09 Q1025 R12/820248 NOSIG RMK QFE743/0991
Conditions at: UASK (UST KAMENOGORSK , RU) observed 0000 UTC 18 November 2019
Temperature: -3.0°C (27°F)
Dewpoint: -9.0°C (16°F) [RH = 63%]
Pressure (altimeter): 30.27 inches Hg (1025.0 mb)
Winds: from the SSE (150 degrees) at 18 MPH (16 knots; 8.2 m/s)
Visibility: 6 or more miles (10+ km)
Ceiling: 11600 feet AGL
Clouds: scattered clouds at 5000 feet AGL
overcast cloud deck at 11600 feet AGL
Weather: no significant weather observed at this time

Forecast for: UASK (UST KAMENOGORSK , RU)
Text: TAF UASK 172304Z 1800/1809 14009G14MPS 9999 BKN033CB OVC080
Forecast period: 0000 to 0900 UTC 18 November 2019
Forecast type: FROM: standard forecast or significant change
Winds: from the SE (140 degrees) at 20 MPH (17 knots; 8.7 m/s)
gusting to 31 MPH (27 knots; 13.9 m/s)
Visibility: 6 or more miles 10+ km)
Ceiling: 3300 feet AGL
Clouds: broken clouds at 3300 feet AGL
overcast cloud deck at 8000 feet AGL
Weather: no significant weather forecast for this period
Text: TEMPO 1800/1803 15010G15MPS 4000 -SHSN BLSN BKN017CB
Forecast period: 0000 to 0300 UTC 18 November 2019
Forecast type: TEMPORARY: The following changes expected for less than half the time period
Winds: from the SSE (150 degrees) at 22 MPH (19 knots; 9.8 m/s)
gusting to 33 MPH (29 knots; 14.9 m/s)
Visibility: 2.49 miles (4.01 km)
Ceiling: 1700 feet AGL
Clouds: broken clouds at 1700 feet AGL
Weather: -SHSN BLSN  (light snow showers, blowing snow)
Text: TEMPO 1803/1809 15010G15MPS 1000 SHSN BLSN BKN007 OVC011CB
Forecast period: 0300 to 0900 UTC 18 November 2019
Forecast type: TEMPORARY: The following changes expected for less than half the time period
Winds: from the SSE (150 degrees) at 22 MPH (19 knots; 9.8 m/s)
gusting to 33 MPH (29 knots; 14.9 m/s)
Visibility: 0.62 miles (1.00 km)
Ceiling: 700 feet AGL
Clouds: broken clouds at 700 feet AGL
overcast cloud deck at 1100 feet AGL
Weather: SHSN BLSN  (snow showers, blowing snow)

 AIRPORT MAP

 RUNWAY INFORMATION

 AIRPORT FREQUENCIES
Type TWR Name TWR Frequency 134.5 MHZ

 AIRPORT NEAR NAVIGATION AIDS
Type NDB Name Ust Kamenogorsk Frequency 345 KHZ
Type NDB Name Ust Kamenogorsk Frequency 345 KHZ



2018 Air Astana Virtual Airline